Profiler II Survey — CZ2496 — position and weather

sailwx.info

Track history (hours):
 
Tides and Currents Weather Stations Pressure Air Temp Water Temp Dewpoint Dewpoint Depression Visibility Wind Speed Wind Dir Waves Ship Positions

Profiler II Survey

Last reported at 2014-Aug-28 22:07 UTC. Time now 2014-Aug-30 20:37 UTC.
Position N 49°13' W 122°52'.

Length 11 m.

Type: Dredging. MMSI: 316002054.

Date/timePositionNaut miles runAvg speedWind from/ knotsBaromVisibWave heightAir tempDewpointWater temp
2014-Aug-28 22:07N 49°13' W 122°52'5 0.7
2014-Aug-28 15:33N 49°13' W 122°45'16 0.9
2014-Aug-27 21:30N 49°12' W 123°09'5 5.0
2014-Aug-27 20:30N 49°15' W 123°16'1 0.6
2014-Aug-27 19:33N 49°15' W 123°16'6 2.1
2014-Aug-27 16:32N 49°12' W 123°08'6 0.3
2014-Aug-26 21:33N 49°09' W 123°00'10 5.1
2014-Aug-26 19:32N 49°07' W 123°15'1110.9
2014-Aug-26 18:31N 49°09' W 122°59'7 6.6
2014-Aug-26 17:30N 49°13' W 122°50'5 0.3
2014-Aug-25 21:04N 49°11' W 122°58'4 7.6
2014-Aug-25 20:30N 49°12' W 123°04'6 6.3
2014-Aug-25 19:30N 49°14' W 123°14'2 1.1
2014-Aug-25 17:23N 49°13' W 123°10'0 0.6
2014-Aug-25 16:33N 49°13' W 123°10'  
2014-Aug-21 21:31N 49°11' W 122°55'1615.8
2014-Aug-21 20:32N 49°06' W 123°18'0 0.0
2014-Aug-21 19:30N 49°06' W 123°18'0 0.4
2014-Aug-21 18:32N 49°06' W 123°19'0 0.3
2014-Aug-21 17:33N 49°06' W 123°19'1110.5
2014-Aug-21 16:32N 49°09' W 123°03'0 0.0
2014-Aug-20 21:33N 49°08' W 123°03'7 6.5
2014-Aug-20 20:33N 49°08' W 123°13'1 1.3
2014-Aug-20 19:34N 49°07' W 123°11'1 0.7
2014-Aug-20 18:33N 49°07' W 123°12'0 0.1
2014-Aug-20 17:33N 49°07' W 123°12'1 0.6
2014-Aug-20 16:33N 49°07' W 123°11'5 5.2
2014-Aug-20 15:33N 49°08' W 123°03'4 0.2
2014-Aug-19 19:14N 49°11' W 122°59'8 8.4
2014-Aug-19 18:20N 49°13' W 123°10'2 2.6
2014-Aug-19 17:33N 49°12' W 123°08'2 2.1
2014-Aug-19 16:26N 49°12' W 123°04'  
Track history (hours):
 
Tides and Currents Weather Stations Pressure Air Temp Water Temp Dewpoint Dewpoint Depression Visibility Wind Speed Wind Dir Waves Ship Positions

Profiler II Survey

Last reported at 2014-Aug-28 22:07 UTC. Time now 2014-Aug-30 20:37 UTC.
Position N 49°13' W 122°52'.

Length 11 m.

Type: Dredging. MMSI: 316002054.

Date/timePositionNaut miles runAvg speedWind from/ knotsBaromVisibWave heightAir tempDewpointWater temp
2014-Aug-28 22:07N 49°13' W 122°52'5 0.7
2014-Aug-28 15:33N 49°13' W 122°45'16 0.9
2014-Aug-27 21:30N 49°12' W 123°09'5 5.0
2014-Aug-27 20:30N 49°15' W 123°16'1 0.6
2014-Aug-27 19:33N 49°15' W 123°16'6 2.1
2014-Aug-27 16:32N 49°12' W 123°08'6 0.3
2014-Aug-26 21:33N 49°09' W 123°00'10 5.1
2014-Aug-26 19:32N 49°07' W 123°15'1110.9
2014-Aug-26 18:31N 49°09' W 122°59'7 6.6
2014-Aug-26 17:30N 49°13' W 122°50'5 0.3
2014-Aug-25 21:04N 49°11' W 122°58'4 7.6
2014-Aug-25 20:30N 49°12' W 123°04'6 6.3
2014-Aug-25 19:30N 49°14' W 123°14'2 1.1
2014-Aug-25 17:23N 49°13' W 123°10'0 0.6
2014-Aug-25 16:33N 49°13' W 123°10'  
2014-Aug-21 21:31N 49°11' W 122°55'1615.8
2014-Aug-21 20:32N 49°06' W 123°18'0 0.0
2014-Aug-21 19:30N 49°06' W 123°18'0 0.4
2014-Aug-21 18:32N 49°06' W 123°19'0 0.3
2014-Aug-21 17:33N 49°06' W 123°19'1110.5
2014-Aug-21 16:32N 49°09' W 123°03'0 0.0
2014-Aug-20 21:33N 49°08' W 123°03'7 6.5
2014-Aug-20 20:33N 49°08' W 123°13'1 1.3
2014-Aug-20 19:34N 49°07' W 123°11'1 0.7
2014-Aug-20 18:33N 49°07' W 123°12'0 0.1
2014-Aug-20 17:33N 49°07' W 123°12'1 0.6
2014-Aug-20 16:33N 49°07' W 123°11'5 5.2
2014-Aug-20 15:33N 49°08' W 123°03'4 0.2
2014-Aug-19 19:14N 49°11' W 122°59'8 8.4
2014-Aug-19 18:20N 49°13' W 123°10'2 2.6
2014-Aug-19 17:33N 49°12' W 123°08'2 2.1
2014-Aug-19 16:26N 49°12' W 123°04'  

Dump ship's entire track history